Home   Weather   Italy   Monza   Past weeks
Flag for Italy

Past Weather in Monza, Italy — Yesterday and Last 2 Weeks

Currently: 90 °F. Passing clouds. (Weather station: Milan / Linate, Italy). See more current weather

Past Weather in Monza — Graph

°F

Monza Temperature Yesterday

Maximum temperature yesterday: 90 °F (at 4:20 pm)
Minimum temperature yesterday: 75 °F (at 2:20 am)
Average temperature yesterday: 82 °F

High & Low Weather Summary for the Past Weeks

 TemperatureHumidityPressure
High95 °F (Jul 19, 4:50 pm)94% (Jul 10, 4:50 am)30.07 "Hg (Jul 10, 4:50 am)
Low68 °F (Jul 14, 5:50 am)38% (Jul 14, 6:50 pm)29.77 "Hg (Jul 20, 4:50 pm)
Average82 °F62%29.91 "Hg
* Reported Jul 9 7:20 pm — Jul 24 7:20 pm, Monza. Weather by CustomWeather, © 2024

Note: Actual official high and low records may vary slightly from our data, if they occured in-between our weather recording intervals... More about our weather records

Monza Weather History for the Previous 24 Hours

Scroll right to see more
 ConditionsComfort  
Time TempWeatherWind HumidityBarometerVisibility
7:20 pm
Wed, Jul 24
90 °FPassing clouds.5 mph46%29.83 "HgN/A
6:50 pm91 °FPassing clouds.6 mph44%29.83 "HgN/A
6:20 pm90 °FPassing clouds.6 mph49%29.83 "HgN/A
5:50 pm90 °FPassing clouds.5 mph49%29.83 "HgN/A
5:20 pm91 °FPassing clouds.5 mph46%29.83 "HgN/A
4:50 pm91 °FPassing clouds.6 mph44%29.83 "HgN/A
3:50 pm90 °FPassing clouds.3 mph46%29.86 "HgN/A
3:20 pm91 °FPassing clouds.3 mph49%29.86 "HgN/A
2:50 pm90 °FPassing clouds.3 mph49%29.89 "HgN/A
2:20 pm90 °FPassing clouds.5 mph46%29.89 "HgN/A
1:50 pm90 °FPassing clouds.6 mph52%29.89 "HgN/A
1:20 pm88 °FSunny.3 mph55%29.89 "Hg10 mi
12:50 pm88 °FSunny.6 mph55%29.92 "Hg10 mi
12:20 pm86 °FPassing clouds.3 mph59%29.92 "HgN/A
11:50 am84 °FPassing clouds.7 mph58%29.92 "HgN/A
11:20 am84 °FPassing clouds.6 mph58%29.92 "HgN/A
10:20 am82 °FPassing clouds.6 mph62%29.92 "HgN/A
9:50 am82 °FPassing clouds.6 mph62%29.92 "HgN/A
9:20 am81 °FScattered clouds.5 mph66%29.92 "HgN/A
8:50 am81 °FPassing clouds.5 mph66%29.92 "HgN/A
8:20 am79 °FPassing clouds.3 mph74%29.92 "HgN/A
7:50 am77 °FPassing clouds.5 mph74%29.92 "HgN/A
7:20 am77 °FScattered clouds.3 mph74%29.92 "HgN/A
6:50 am75 °FSunny.1 mph83%29.92 "Hg10 mi
6:20 am75 °FSunny.3 mph78%29.92 "Hg10 mi
5:50 am75 °FClear.3 mph78%29.92 "Hg10 mi
5:20 am75 °FClear.3 mph78%29.92 "Hg10 mi
4:50 am75 °FPassing clouds.3 mph78%29.92 "HgN/A
4:20 am75 °FClear.2 mph83%29.92 "Hg10 mi
3:50 am77 °FClear.3 mph74%29.95 "Hg10 mi
3:20 am77 °FClear.5 mph74%29.95 "Hg10 mi
2:50 am77 °FClear.5 mph79%29.95 "Hg10 mi
2:20 am77 °FClear.2 mph79%29.95 "Hg10 mi
1:50 am79 °FPassing clouds.3 mph74%29.95 "HgN/A
1:20 am79 °FClear.3 mph74%29.95 "Hg10 mi
12:50 am81 °FPassing clouds.3 mph70%29.95 "HgN/A
11:50 pm
Tue, Jul 23
79 °FClear.1 mph84%29.95 "Hg10 mi
11:20 pm79 °FClear.1 mph84%29.95 "Hg10 mi
10:50 pm81 °FClear.2 mph74%29.95 "Hg10 mi
10:20 pm81 °FClear.2 mph84%29.95 "Hg10 mi
9:50 pm82 °FClear.1 mph66%29.95 "Hg10 mi
9:20 pm82 °FClear.2 mph74%29.95 "Hg10 mi
8:50 pm84 °FSunny.2 mph62%29.92 "Hg10 mi
8:20 pm88 °FSunny.5 mph52%29.92 "Hg10 mi
Weather by CustomWeather, © 2024

See weather overview